sensor_id;sensor_type;location;lat;lon;timestamp;pressure;altitude;pressure_sealevel;temperature;humidity
24031;BME280;12240;51.142;22.486;2022-07-06T00:01:20;99373.72;;;16.70;100.00
24031;BME280;12240;51.142;22.486;2022-07-06T00:03:51;99352.22;;;16.49;100.00
24031;BME280;12240;51.142;22.486;2022-07-06T00:06:23;99342.59;;;16.40;100.00
24031;BME280;12240;51.142;22.486;2022-07-06T00:08:51;99362.50;;;16.46;100.00
24031;BME280;12240;51.142;22.486;2022-07-06T00:11:19;99401.78;;;16.61;100.00
24031;BME280;12240;51.142;22.486;2022-07-06T00:13:48;99405.59;;;16.52;100.00
24031;BME280;12240;51.142;22.486;2022-07-06T00:16:17;99385.59;;;16.40;100.00
24031;BME280;12240;51.142;22.486;2022-07-06T00:18:46;99417.06;;;16.61;100.00
24031;BME280;12240;51.142;22.486;2022-07-06T00:21:14;99417.72;;;16.63;100.00
24031;BME280;12240;51.142;22.486;2022-07-06T00:23:42;99403.25;;;16.64;100.00
24031;BME280;12240;51.142;22.486;2022-07-06T00:26:10;99391.78;;;16.55;100.00
24031;BME280;12240;51.142;22.486;2022-07-06T00:28:39;99404.81;;;16.58;100.00
24031;BME280;12240;51.142;22.486;2022-07-06T00:31:07;99402.25;;;16.50;100.00
24031;BME280;12240;51.142;22.486;2022-07-06T00:33:35;99407.44;;;16.52;100.00
24031;BME280;12240;51.142;22.486;2022-07-06T00:36:04;99401.06;;;16.53;100.00
24031;BME280;12240;51.142;22.486;2022-07-06T00:38:32;99352.28;;;16.20;100.00
24031;BME280;12240;51.142;22.486;2022-07-06T00:41:04;99385.19;;;16.43;100.00
24031;BME280;12240;51.142;22.486;2022-07-06T00:43:54;99389.56;;;16.44;100.00
24031;BME280;12240;51.142;22.486;2022-07-06T00:46:30;99337.09;;;16.12;100.00
24031;BME280;12240;51.142;22.486;2022-07-06T00:49:00;99397.63;;;16.44;100.00
24031;BME280;12240;51.142;22.486;2022-07-06T00:51:31;99378.34;;;16.41;100.00
24031;BME280;12240;51.142;22.486;2022-07-06T00:54:02;99344.38;;;16.18;100.00
24031;BME280;12240;51.142;22.486;2022-07-06T00:56:32;99344.28;;;16.26;100.00
24031;BME280;12240;51.142;22.486;2022-07-06T00:59:00;99381.50;;;16.44;100.00
24031;BME280;12240;51.142;22.486;2022-07-06T01:01:29;99375.28;;;16.44;100.00
24031;BME280;12240;51.142;22.486;2022-07-06T01:03:58;99327.91;;;16.21;100.00
24031;BME280;12240;51.142;22.486;2022-07-06T01:06:26;99333.47;;;16.20;100.00
24031;BME280;12240;51.142;22.486;2022-07-06T01:08:54;99357.34;;;16.29;100.00
24031;BME280;12240;51.142;22.486;2022-07-06T01:11:26;99353.56;;;16.24;100.00
24031;BME280;12240;51.142;22.486;2022-07-06T01:13:55;99371.09;;;16.41;100.00
24031;BME280;12240;51.142;22.486;2022-07-06T01:16:24;99370.41;;;16.47;100.00
24031;BME280;12240;51.142;22.486;2022-07-06T01:18:53;99358.41;;;16.50;100.00
24031;BME280;12240;51.142;22.486;2022-07-06T01:21:21;99356.78;;;16.49;100.00
24031;BME280;12240;51.142;22.486;2022-07-06T01:23:49;99344.03;;;16.43;100.00
24031;BME280;12240;51.142;22.486;2022-07-06T01:26:20;99347.97;;;16.40;100.00
24031;BME280;12240;51.142;22.486;2022-07-06T01:28:52;99331.63;;;16.42;100.00
24031;BME280;12240;51.142;22.486;2022-07-06T01:31:26;99285.38;;;16.25;100.00
24031;BME280;12240;51.142;22.486;2022-07-06T01:33:56;99286.53;;;16.37;100.00
24031;BME280;12240;51.142;22.486;2022-07-06T01:36:27;99367.03;;;16.45;100.00
24031;BME280;12240;51.142;22.486;2022-07-06T01:38:56;99290.88;;;16.38;100.00
24031;BME280;12240;51.142;22.486;2022-07-06T01:41:27;99277.13;;;16.26;100.00
24031;BME280;12240;51.142;22.486;2022-07-06T01:43:55;99280.47;;;16.28;100.00
24031;BME280;12240;51.142;22.486;2022-07-06T01:46:23;99300.88;;;16.44;100.00
24031;BME280;12240;51.142;22.486;2022-07-06T01:48:52;99307.91;;;16.45;100.00
24031;BME280;12240;51.142;22.486;2022-07-06T01:51:20;99294.31;;;16.47;100.00
24031;BME280;12240;51.142;22.486;2022-07-06T01:53:49;99288.84;;;16.40;100.00
24031;BME280;12240;51.142;22.486;2022-07-06T01:56:20;99283.47;;;16.40;100.00
24031;BME280;12240;51.142;22.486;2022-07-06T01:58:52;99276.41;;;16.39;100.00
24031;BME280;12240;51.142;22.486;2022-07-06T02:01:23;99262.16;;;16.39;100.00
24031;BME280;12240;51.142;22.486;2022-07-06T02:03:51;99250.19;;;16.41;100.00
24031;BME280;12240;51.142;22.486;2022-07-06T02:06:19;99242.50;;;16.38;100.00
24031;BME280;12240;51.142;22.486;2022-07-06T02:08:49;99245.44;;;16.43;100.00
24031;BME280;12240;51.142;22.486;2022-07-06T02:11:20;99261.56;;;16.43;100.00
24031;BME280;12240;51.142;22.486;2022-07-06T02:13:48;99256.59;;;16.40;100.00
24031;BME280;12240;51.142;22.486;2022-07-06T02:16:16;99226.63;;;16.22;100.00
24031;BME280;12240;51.142;22.486;2022-07-06T02:18:45;99247.13;;;16.44;100.00
24031;BME280;12240;51.142;22.486;2022-07-06T02:21:13;99220.91;;;16.25;100.00
24031;BME280;12240;51.142;22.486;2022-07-06T02:23:43;99271.22;;;16.52;100.00
24031;BME280;12240;51.142;22.486;2022-07-06T02:26:11;99224.03;;;16.28;100.00
24031;BME280;12240;51.142;22.486;2022-07-06T02:28:39;99197.34;;;16.06;100.00
24031;BME280;12240;51.142;22.486;2022-07-06T02:31:07;99222.44;;;16.13;100.00
24031;BME280;12240;51.142;22.486;2022-07-06T02:33:36;99249.41;;;16.26;100.00
24031;BME280;12240;51.142;22.486;2022-07-06T02:36:04;99286.50;;;16.52;100.00
24031;BME280;12240;51.142;22.486;2022-07-06T02:38:32;99257.72;;;16.31;100.00
24031;BME280;12240;51.142;22.486;2022-07-06T02:41:01;99247.66;;;16.18;100.00
24031;BME280;12240;51.142;22.486;2022-07-06T02:43:29;99284.91;;;16.43;100.00
24031;BME280;12240;51.142;22.486;2022-07-06T02:45:59;99286.84;;;16.27;100.00
24031;BME280;12240;51.142;22.486;2022-07-06T02:48:29;99257.84;;;16.02;100.00
24031;BME280;12240;51.142;22.486;2022-07-06T02:50:57;99259.47;;;16.03;100.00
24031;BME280;12240;51.142;22.486;2022-07-06T02:53:27;99244.06;;;15.90;100.00
24031;BME280;12240;51.142;22.486;2022-07-06T02:55:56;99256.09;;;15.94;100.00
24031;BME280;12240;51.142;22.486;2022-07-06T02:58:25;99291.88;;;16.16;100.00
24031;BME280;12240;51.142;22.486;2022-07-06T03:00:54;99294.75;;;16.14;100.00
24031;BME280;12240;51.142;22.486;2022-07-06T03:03:23;99297.00;;;16.11;100.00
24031;BME280;12240;51.142;22.486;2022-07-06T03:05:51;99241.69;;;15.81;100.00
24031;BME280;12240;51.142;22.486;2022-07-06T03:08:20;99293.13;;;15.99;100.00
24031;BME280;12240;51.142;22.486;2022-07-06T03:10:50;99305.25;;;15.95;100.00
24031;BME280;12240;51.142;22.486;2022-07-06T03:13:18;99305.00;;;15.90;100.00
24031;BME280;12240;51.142;22.486;2022-07-06T03:15:47;99203.16;;;15.24;100.00
24031;BME280;12240;51.142;22.486;2022-07-06T03:18:15;99292.16;;;15.71;100.00
24031;BME280;12240;51.142;22.486;2022-07-06T03:20:44;99294.38;;;15.67;100.00
24031;BME280;12240;51.142;22.486;2022-07-06T03:23:15;99231.19;;;15.36;100.00
24031;BME280;12240;51.142;22.486;2022-07-06T03:25:43;99239.69;;;15.25;100.00
24031;BME280;12240;51.142;22.486;2022-07-06T03:28:11;99233.97;;;15.13;100.00
24031;BME280;12240;51.142;22.486;2022-07-06T03:30:39;99269.06;;;15.41;100.00
24031;BME280;12240;51.142;22.486;2022-07-06T03:33:08;99265.69;;;15.39;100.00
24031;BME280;12240;51.142;22.486;2022-07-06T03:35:37;99241.81;;;15.14;100.00
24031;BME280;12240;51.142;22.486;2022-07-06T03:38:08;99267.72;;;15.37;100.00
24031;BME280;12240;51.142;22.486;2022-07-06T03:40:38;99182.53;;;14.80;100.00
24031;BME280;12240;51.142;22.486;2022-07-06T03:43:06;99178.19;;;14.79;100.00
24031;BME280;12240;51.142;22.486;2022-07-06T03:45:36;99268.47;;;15.31;100.00
24031;BME280;12240;51.142;22.486;2022-07-06T03:48:06;99246.44;;;15.06;100.00
24031;BME280;12240;51.142;22.486;2022-07-06T03:50:37;99269.94;;;15.18;100.00
24031;BME280;12240;51.142;22.486;2022-07-06T03:53:05;99294.38;;;15.24;100.00
24031;BME280;12240;51.142;22.486;2022-07-06T03:55:35;99293.25;;;15.18;100.00
24031;BME280;12240;51.142;22.486;2022-07-06T03:58:07;99248.81;;;14.86;100.00
24031;BME280;12240;51.142;22.486;2022-07-06T04:00:38;99298.78;;;15.16;100.00
24031;BME280;12240;51.142;22.486;2022-07-06T04:03:14;99279.91;;;15.10;100.00
24031;BME280;12240;51.142;22.486;2022-07-06T04:05:48;99297.13;;;15.15;100.00
24031;BME280;12240;51.142;22.486;2022-07-06T04:08:17;99295.84;;;15.11;100.00
24031;BME280;12240;51.142;22.486;2022-07-06T04:10:51;99302.00;;;15.12;100.00
24031;BME280;12240;51.142;22.486;2022-07-06T04:13:19;99293.63;;;15.15;100.00
24031;BME280;12240;51.142;22.486;2022-07-06T04:15:47;99275.00;;;14.99;100.00
24031;BME280;12240;51.142;22.486;2022-07-06T04:18:15;99291.56;;;15.02;100.00
24031;BME280;12240;51.142;22.486;2022-07-06T04:20:49;99292.63;;;14.93;100.00
24031;BME280;12240;51.142;22.486;2022-07-06T04:23:18;99256.66;;;14.73;100.00
24031;BME280;12240;51.142;22.486;2022-07-06T04:25:46;99308.34;;;14.96;100.00
24031;BME280;12240;51.142;22.486;2022-07-06T04:28:15;99305.28;;;14.85;100.00
24031;BME280;12240;51.142;22.486;2022-07-06T04:30:43;99315.53;;;14.81;100.00
24031;BME280;12240;51.142;22.486;2022-07-06T04:33:15;99298.28;;;14.61;100.00
24031;BME280;12240;51.142;22.486;2022-07-06T04:35:45;99270.91;;;14.51;100.00
24031;BME280;12240;51.142;22.486;2022-07-06T04:38:14;99321.28;;;14.78;100.00
24031;BME280;12240;51.142;22.486;2022-07-06T04:40:43;99325.25;;;14.82;100.00
24031;BME280;12240;51.142;22.486;2022-07-06T04:43:17;99328.84;;;14.89;100.00
24031;BME280;12240;51.142;22.486;2022-07-06T04:45:45;99332.00;;;14.78;100.00
24031;BME280;12240;51.142;22.486;2022-07-06T04:48:14;99342.06;;;14.76;100.00
24031;BME280;12240;51.142;22.486;2022-07-06T04:50:42;99313.91;;;14.58;100.00
24031;BME280;12240;51.142;22.486;2022-07-06T04:53:16;99359.16;;;14.75;100.00
24031;BME280;12240;51.142;22.486;2022-07-06T04:55:44;99311.16;;;14.43;100.00
24031;BME280;12240;51.142;22.486;2022-07-06T04:58:12;99322.16;;;14.48;100.00
24031;BME280;12240;51.142;22.486;2022-07-06T05:00:41;99356.19;;;14.70;100.00
24031;BME280;12240;51.142;22.486;2022-07-06T05:03:09;99363.31;;;14.78;100.00
24031;BME280;12240;51.142;22.486;2022-07-06T05:05:37;99380.59;;;14.75;100.00
24031;BME280;12240;51.142;22.486;2022-07-06T05:08:06;99325.56;;;14.42;100.00
24031;BME280;12240;51.142;22.486;2022-07-06T05:10:34;99381.97;;;14.71;100.00
24031;BME280;12240;51.142;22.486;2022-07-06T05:13:03;99386.00;;;14.67;100.00
24031;BME280;12240;51.142;22.486;2022-07-06T05:15:31;99351.31;;;14.43;100.00
24031;BME280;12240;51.142;22.486;2022-07-06T05:18:00;99383.19;;;14.61;100.00
24031;BME280;12240;51.142;22.486;2022-07-06T05:20:28;99371.72;;;14.52;100.00
24031;BME280;12240;51.142;22.486;2022-07-06T05:22:58;99399.09;;;14.62;100.00
24031;BME280;12240;51.142;22.486;2022-07-06T05:25:30;99387.91;;;14.59;100.00
24031;BME280;12240;51.142;22.486;2022-07-06T05:28:02;99263.81;;;13.82;100.00
24031;BME280;12240;51.142;22.486;2022-07-06T05:30:32;99387.59;;;14.54;100.00
24031;BME280;12240;51.142;22.486;2022-07-06T05:33:00;99389.97;;;14.49;100.00
24031;BME280;12240;51.142;22.486;2022-07-06T05:35:29;99341.28;;;14.15;100.00
24031;BME280;12240;51.142;22.486;2022-07-06T05:38:19;99402.78;;;14.39;100.00
24031;BME280;12240;51.142;22.486;2022-07-06T05:40:49;99403.91;;;14.44;100.00
24031;BME280;12240;51.142;22.486;2022-07-06T05:43:17;99318.66;;;13.86;100.00
24031;BME280;12240;51.142;22.486;2022-07-06T05:45:46;99368.59;;;14.10;100.00
24031;BME280;12240;51.142;22.486;2022-07-06T05:48:20;99422.97;;;14.49;100.00
24031;BME280;12240;51.142;22.486;2022-07-06T05:51:07;99419.75;;;14.54;100.00
24031;BME280;12240;51.142;22.486;2022-07-06T05:53:36;99419.28;;;14.50;100.00
24031;BME280;12240;51.142;22.486;2022-07-06T05:56:04;99422.13;;;14.49;100.00
24031;BME280;12240;51.142;22.486;2022-07-06T05:58:34;99414.28;;;14.47;100.00
24031;BME280;12240;51.142;22.486;2022-07-06T06:01:03;99421.78;;;14.52;100.00
24031;BME280;12240;51.142;22.486;2022-07-06T06:03:34;99428.94;;;14.59;100.00
24031;BME280;12240;51.142;22.486;2022-07-06T06:06:05;99423.09;;;14.56;100.00
24031;BME280;12240;51.142;22.486;2022-07-06T06:08:33;99420.84;;;14.67;100.00
24031;BME280;12240;51.142;22.486;2022-07-06T06:11:03;99436.59;;;14.70;100.00
24031;BME280;12240;51.142;22.486;2022-07-06T06:13:42;99321.31;;;13.94;100.00
24031;BME280;12240;51.142;22.486;2022-07-06T06:16:11;99423.41;;;14.61;100.00
24031;BME280;12240;51.142;22.486;2022-07-06T06:18:40;99433.38;;;14.75;100.00
24031;BME280;12240;51.142;22.486;2022-07-06T06:21:09;99453.47;;;14.79;100.00
24031;BME280;12240;51.142;22.486;2022-07-06T06:23:38;99443.03;;;14.84;100.00
24031;BME280;12240;51.142;22.486;2022-07-06T06:26:07;99384.94;;;14.54;100.00
24031;BME280;12240;51.142;22.486;2022-07-06T06:28:35;99431.66;;;15.04;100.00
24031;BME280;12240;51.142;22.486;2022-07-06T06:31:06;99430.41;;;15.15;100.00
24031;BME280;12240;51.142;22.486;2022-07-06T06:33:37;99416.91;;;15.23;100.00
24031;BME280;12240;51.142;22.486;2022-07-06T06:36:05;99412.97;;;15.34;100.00
24031;BME280;12240;51.142;22.486;2022-07-06T06:38:33;99405.34;;;15.23;100.00
24031;BME280;12240;51.142;22.486;2022-07-06T06:41:01;99350.56;;;15.02;100.00
24031;BME280;12240;51.142;22.486;2022-07-06T06:43:29;99413.22;;;15.61;100.00
24031;BME280;12240;51.142;22.486;2022-07-06T06:46:07;99422.03;;;15.84;100.00
24031;BME280;12240;51.142;22.486;2022-07-06T06:48:35;99379.63;;;15.65;100.00
24031;BME280;12240;51.142;22.486;2022-07-06T06:51:04;99419.63;;;15.89;100.00
24031;BME280;12240;51.142;22.486;2022-07-06T06:53:32;99393.78;;;15.74;100.00
24031;BME280;12240;51.142;22.486;2022-07-06T06:56:07;99391.09;;;15.74;100.00
24031;BME280;12240;51.142;22.486;2022-07-06T06:58:36;99362.69;;;15.50;100.00
24031;BME280;12240;51.142;22.486;2022-07-06T07:01:25;99396.28;;;15.90;100.00
24031;BME280;12240;51.142;22.486;2022-07-06T07:03:54;99407.75;;;16.27;100.00
24031;BME280;12240;51.142;22.486;2022-07-06T07:06:23;99382.44;;;16.22;100.00
24031;BME280;12240;51.142;22.486;2022-07-06T07:08:51;99368.41;;;16.20;100.00
24031;BME280;12240;51.142;22.486;2022-07-06T07:11:20;99360.28;;;16.70;100.00
24031;BME280;12240;51.142;22.486;2022-07-06T07:13:48;99325.09;;;16.65;100.00
24031;BME280;12240;51.142;22.486;2022-07-06T07:16:16;99295.00;;;16.55;100.00
24031;BME280;12240;51.142;22.486;2022-07-06T07:18:47;99352.78;;;17.08;100.00
24031;BME280;12240;51.142;22.486;2022-07-06T07:21:16;99344.22;;;17.25;100.00
24031;BME280;12240;51.142;22.486;2022-07-06T07:23:44;99331.22;;;17.29;100.00
24031;BME280;12240;51.142;22.486;2022-07-06T07:26:12;99310.69;;;16.94;100.00
24031;BME280;12240;51.142;22.486;2022-07-06T07:28:41;99294.81;;;17.05;100.00
24031;BME280;12240;51.142;22.486;2022-07-06T07:31:11;99354.06;;;17.39;100.00
24031;BME280;12240;51.142;22.486;2022-07-06T07:33:40;99351.41;;;17.18;100.00
24031;BME280;12240;51.142;22.486;2022-07-06T07:36:09;99352.94;;;17.27;100.00
24031;BME280;12240;51.142;22.486;2022-07-06T07:38:37;99353.81;;;17.56;100.00
24031;BME280;12240;51.142;22.486;2022-07-06T07:41:05;99348.94;;;17.72;100.00
24031;BME280;12240;51.142;22.486;2022-07-06T07:43:33;99325.53;;;17.45;100.00
24031;BME280;12240;51.142;22.486;2022-07-06T07:46:01;99314.50;;;17.33;100.00
24031;BME280;12240;51.142;22.486;2022-07-06T07:48:30;99355.63;;;17.49;100.00
24031;BME280;12240;51.142;22.486;2022-07-06T07:50:58;99347.13;;;17.86;100.00
24031;BME280;12240;51.142;22.486;2022-07-06T07:53:26;99309.25;;;17.53;100.00
24031;BME280;12240;51.142;22.486;2022-07-06T07:55:55;99330.25;;;18.05;100.00
24031;BME280;12240;51.142;22.486;2022-07-06T07:58:23;99335.41;;;18.53;100.00
24031;BME280;12240;51.142;22.486;2022-07-06T08:00:53;99295.97;;;17.86;100.00
24031;BME280;12240;51.142;22.486;2022-07-06T08:03:21;99343.81;;;18.31;100.00
24031;BME280;12240;51.142;22.486;2022-07-06T08:05:50;99336.13;;;18.28;100.00
24031;BME280;12240;51.142;22.486;2022-07-06T08:08:18;99300.28;;;17.80;100.00
24031;BME280;12240;51.142;22.486;2022-07-06T08:10:46;99350.63;;;18.27;100.00
24031;BME280;12240;51.142;22.486;2022-07-06T08:13:35;99336.38;;;18.33;100.00
24031;BME280;12240;51.142;22.486;2022-07-06T08:16:04;99361.16;;;18.63;100.00
24031;BME280;12240;51.142;22.486;2022-07-06T08:18:33;99319.34;;;18.32;100.00
24031;BME280;12240;51.142;22.486;2022-07-06T08:21:02;99363.66;;;18.77;100.00
24031;BME280;12240;51.142;22.486;2022-07-06T08:23:51;99371.63;;;19.37;100.00
24031;BME280;12240;51.142;22.486;2022-07-06T08:26:19;99387.59;;;19.65;100.00
24031;BME280;12240;51.142;22.486;2022-07-06T08:28:47;99272.19;;;18.95;100.00
24031;BME280;12240;51.142;22.486;2022-07-06T08:31:15;99391.00;;;20.31;100.00
24031;BME280;12240;51.142;22.486;2022-07-06T08:34:04;99391.66;;;20.00;100.00
24031;BME280;12240;51.142;22.486;2022-07-06T08:36:32;99374.50;;;19.75;100.00
24031;BME280;12240;51.142;22.486;2022-07-06T08:39:00;99391.44;;;20.15;100.00
24031;BME280;12240;51.142;22.486;2022-07-06T08:41:29;99399.84;;;19.74;100.00
24031;BME280;12240;51.142;22.486;2022-07-06T08:43:58;99383.19;;;18.99;100.00
24031;BME280;12240;51.142;22.486;2022-07-06T08:46:28;99405.44;;;19.14;100.00
24031;BME280;12240;51.142;22.486;2022-07-06T08:48:57;99378.97;;;18.57;100.00
24031;BME280;12240;51.142;22.486;2022-07-06T08:51:27;99424.84;;;18.64;100.00
24031;BME280;12240;51.142;22.486;2022-07-06T08:53:57;99430.94;;;18.38;100.00
24031;BME280;12240;51.142;22.486;2022-07-06T08:56:26;99425.16;;;18.00;100.00
24031;BME280;12240;51.142;22.486;2022-07-06T08:58:55;99423.13;;;18.09;100.00
24031;BME280;12240;51.142;22.486;2022-07-06T09:01:24;99351.69;;;18.26;100.00
24031;BME280;12240;51.142;22.486;2022-07-06T09:03:55;99431.38;;;19.02;100.00
24031;BME280;12240;51.142;22.486;2022-07-06T09:06:25;99399.44;;;18.38;100.00
24031;BME280;12240;51.142;22.486;2022-07-06T09:08:56;99426.34;;;18.73;100.00
24031;BME280;12240;51.142;22.486;2022-07-06T09:11:25;99411.81;;;17.92;100.00
24031;BME280;12240;51.142;22.486;2022-07-06T09:13:53;99421.00;;;18.04;100.00
24031;BME280;12240;51.142;22.486;2022-07-06T09:16:28;99452.84;;;18.22;100.00
24031;BME280;12240;51.142;22.486;2022-07-06T09:19:08;99453.63;;;18.50;100.00
24031;BME280;12240;51.142;22.486;2022-07-06T09:21:41;99464.09;;;18.73;100.00
24031;BME280;12240;51.142;22.486;2022-07-06T09:24:12;99463.88;;;18.68;100.00
24031;BME280;12240;51.142;22.486;2022-07-06T09:26:41;99455.41;;;18.90;100.00
24031;BME280;12240;51.142;22.486;2022-07-06T09:29:10;99419.63;;;18.15;100.00
24031;BME280;12240;51.142;22.486;2022-07-06T09:31:39;99463.16;;;18.46;100.00
24031;BME280;12240;51.142;22.486;2022-07-06T09:34:08;99482.69;;;18.54;100.00
24031;BME280;12240;51.142;22.486;2022-07-06T09:36:49;99469.84;;;18.63;100.00
24031;BME280;12240;51.142;22.486;2022-07-06T09:39:27;99455.03;;;18.93;100.00
24031;BME280;12240;51.142;22.486;2022-07-06T09:42:00;99447.88;;;19.39;100.00
24031;BME280;12240;51.142;22.486;2022-07-06T09:44:31;99426.78;;;18.89;100.00
24031;BME280;12240;51.142;22.486;2022-07-06T09:47:10;99473.50;;;18.96;100.00
24031;BME280;12240;51.142;22.486;2022-07-06T09:49:39;99446.97;;;18.46;100.00
24031;BME280;12240;51.142;22.486;2022-07-06T09:52:09;99394.06;;;18.04;100.00
24031;BME280;12240;51.142;22.486;2022-07-06T09:54:39;99452.28;;;18.87;100.00
24031;BME280;12240;51.142;22.486;2022-07-06T09:57:08;99479.00;;;19.35;100.00
24031;BME280;12240;51.142;22.486;2022-07-06T09:59:37;99478.06;;;18.96;100.00
24031;BME280;12240;51.142;22.486;2022-07-06T10:02:07;99482.66;;;19.02;100.00
24031;BME280;12240;51.142;22.486;2022-07-06T10:04:36;99445.16;;;19.33;100.00
24031;BME280;12240;51.142;22.486;2022-07-06T10:07:05;99495.22;;;19.74;100.00
24031;BME280;12240;51.142;22.486;2022-07-06T10:09:34;99489.44;;;19.84;100.00
24031;BME280;12240;51.142;22.486;2022-07-06T10:12:03;99452.63;;;19.90;100.00
24031;BME280;12240;51.142;22.486;2022-07-06T10:14:34;99494.34;;;21.03;100.00
24031;BME280;12240;51.142;22.486;2022-07-06T10:17:03;99493.13;;;20.93;100.00
24031;BME280;12240;51.142;22.486;2022-07-06T10:19:33;99478.31;;;20.95;100.00
24031;BME280;12240;51.142;22.486;2022-07-06T10:22:03;99490.63;;;20.34;100.00
24031;BME280;12240;51.142;22.486;2022-07-06T10:24:32;99450.56;;;19.79;100.00
24031;BME280;12240;51.142;22.486;2022-07-06T10:27:08;99492.53;;;19.68;100.00
24031;BME280;12240;51.142;22.486;2022-07-06T10:29:37;99445.72;;;19.28;100.00
24031;BME280;12240;51.142;22.486;2022-07-06T10:32:06;99486.16;;;19.02;100.00
24031;BME280;12240;51.142;22.486;2022-07-06T10:34:35;99495.34;;;19.14;100.00
24031;BME280;12240;51.142;22.486;2022-07-06T10:37:04;99492.31;;;19.43;100.00
24031;BME280;12240;51.142;22.486;2022-07-06T10:39:39;99462.84;;;19.55;100.00
24031;BME280;12240;51.142;22.486;2022-07-06T10:42:48;99499.59;;;19.95;100.00
24031;BME280;12240;51.142;22.486;2022-07-06T10:53:30;99473.06;;;21.38;100.00
24031;BME280;12240;51.142;22.486;2022-07-06T10:56:04;99510.34;;;21.11;100.00
24031;BME280;12240;51.142;22.486;2022-07-06T10:58:51;99508.44;;;21.49;100.00
24031;BME280;12240;51.142;22.486;2022-07-06T11:01:28;99498.56;;;20.86;100.00
24031;BME280;12240;51.142;22.486;2022-07-06T11:06:26;99459.94;;;21.10;100.00
24031;BME280;12240;51.142;22.486;2022-07-06T11:09:02;99510.94;;;21.75;100.00
24031;BME280;12240;51.142;22.486;2022-07-06T11:19:24;99498.59;;;20.73;100.00
24031;BME280;12240;51.142;22.486;2022-07-06T11:24:31;99478.75;;;20.92;100.00
24031;BME280;12240;51.142;22.486;2022-07-06T11:27:00;99466.25;;;22.09;100.00
24031;BME280;12240;51.142;22.486;2022-07-06T11:29:29;99484.28;;;22.22;100.00
24031;BME280;12240;51.142;22.486;2022-07-06T11:31:59;99455.50;;;22.39;100.00
24031;BME280;12240;51.142;22.486;2022-07-06T11:34:33;99464.81;;;23.79;100.00
24031;BME280;12240;51.142;22.486;2022-07-06T11:37:08;99446.00;;;22.84;100.00
24031;BME280;12240;51.142;22.486;2022-07-06T11:39:46;99496.50;;;22.67;100.00
24031;BME280;12240;51.142;22.486;2022-07-06T11:42:19;99448.03;;;22.52;100.00
24031;BME280;12240;51.142;22.486;2022-07-06T11:44:47;99478.41;;;23.68;100.00
24031;BME280;12240;51.142;22.486;2022-07-06T11:47:16;99473.56;;;22.81;100.00
24031;BME280;12240;51.142;22.486;2022-07-06T11:49:51;99436.00;;;22.96;100.00
24031;BME280;12240;51.142;22.486;2022-07-06T11:52:21;99475.47;;;24.50;100.00
24031;BME280;12240;51.142;22.486;2022-07-06T11:54:58;99448.22;;;25.29;99.90
24031;BME280;12240;51.142;22.486;2022-07-06T11:57:30;99424.28;;;24.12;100.00
24031;BME280;12240;51.142;22.486;2022-07-06T12:00:00;99460.25;;;25.33;100.00
24031;BME280;12240;51.142;22.486;2022-07-06T12:02:28;99440.00;;;24.22;100.00
24031;BME280;12240;51.142;22.486;2022-07-06T12:04:56;99478.06;;;23.87;100.00
24031;BME280;12240;51.142;22.486;2022-07-06T12:07:24;99425.44;;;23.93;100.00
24031;BME280;12240;51.142;22.486;2022-07-06T12:09:53;99433.56;;;23.47;100.00
24031;BME280;12240;51.142;22.486;2022-07-06T12:12:21;99459.03;;;24.45;100.00
24031;BME280;12240;51.142;22.486;2022-07-06T12:14:52;99407.94;;;25.03;95.44
24031;BME280;12240;51.142;22.486;2022-07-06T12:17:21;99446.78;;;25.88;84.55
24031;BME280;12240;51.142;22.486;2022-07-06T12:19:54;99400.28;;;26.00;78.69
24031;BME280;12240;51.142;22.486;2022-07-06T12:22:27;99472.28;;;25.49;82.71
24031;BME280;12240;51.142;22.486;2022-07-06T12:24:55;99447.69;;;24.13;81.39
24031;BME280;12240;51.142;22.486;2022-07-06T12:27:23;99475.94;;;23.07;97.08
24031;BME280;12240;51.142;22.486;2022-07-06T12:29:52;99475.16;;;23.18;100.00
24031;BME280;12240;51.142;22.486;2022-07-06T12:32:22;99488.28;;;23.51;95.71
24031;BME280;12240;51.142;22.486;2022-07-06T12:35:17;99441.25;;;23.21;93.40
24031;BME280;12240;51.142;22.486;2022-07-06T12:37:55;99484.59;;;24.33;91.57
24031;BME280;12240;51.142;22.486;2022-07-06T12:40:27;99481.47;;;24.75;83.69
24031;BME280;12240;51.142;22.486;2022-07-06T12:42:55;99458.94;;;24.05;80.58
24031;BME280;12240;51.142;22.486;2022-07-06T12:45:27;99459.81;;;24.69;80.49
24031;BME280;12240;51.142;22.486;2022-07-06T12:48:01;99468.66;;;24.25;83.80
24031;BME280;12240;51.142;22.486;2022-07-06T12:50:38;99458.53;;;23.67;82.10
24031;BME280;12240;51.142;22.486;2022-07-06T12:53:24;99469.56;;;23.31;83.79
24031;BME280;12240;51.142;22.486;2022-07-06T12:56:13;99369.50;;;23.86;77.80
24031;BME280;12240;51.142;22.486;2022-07-06T12:59:02;99424.41;;;25.25;77.73
24031;BME280;12240;51.142;22.486;2022-07-06T13:01:30;99447.09;;;25.14;67.85
24031;BME280;12240;51.142;22.486;2022-07-06T13:03:59;99467.69;;;24.93;70.81
24031;BME280;12240;51.142;22.486;2022-07-06T13:06:35;99462.88;;;23.57;71.60
24031;BME280;12240;51.142;22.486;2022-07-06T13:09:05;99453.56;;;23.23;74.32
24031;BME280;12240;51.142;22.486;2022-07-06T13:11:33;99463.84;;;23.21;77.22
24031;BME280;12240;51.142;22.486;2022-07-06T13:14:01;99428.34;;;22.75;79.82
24031;BME280;12240;51.142;22.486;2022-07-06T13:16:30;99459.00;;;23.64;84.76
24031;BME280;12240;51.142;22.486;2022-07-06T13:19:03;99426.03;;;23.61;79.96